sensor_id;sensor_type;location;lat;lon;timestamp;P1;durP1;ratioP1;P2;durP2;ratioP2
32501;SDS011;18952;52.516;13.460;2023-11-21T00:02:10;40.05;;;27.55;;
32501;SDS011;18952;52.516;13.460;2023-11-21T00:04:37;38.45;;;28.02;;
32501;SDS011;18952;52.516;13.460;2023-11-21T00:07:04;39.03;;;28.23;;
32501;SDS011;18952;52.516;13.460;2023-11-21T00:09:31;46.50;;;31.15;;
32501;SDS011;18952;52.516;13.460;2023-11-21T00:11:59;43.28;;;31.02;;
32501;SDS011;18952;52.516;13.460;2023-11-21T00:14:25;50.75;;;33.13;;
32501;SDS011;18952;52.516;13.460;2023-11-21T00:16:53;51.25;;;35.22;;
32501;SDS011;18952;52.516;13.460;2023-11-21T00:19:20;51.72;;;36.42;;
32501;SDS011;18952;52.516;13.460;2023-11-21T00:21:47;58.20;;;39.90;;
32501;SDS011;18952;52.516;13.460;2023-11-21T00:24:13;69.70;;;42.80;;
32501;SDS011;18952;52.516;13.460;2023-11-21T00:26:40;66.45;;;40.95;;
32501;SDS011;18952;52.516;13.460;2023-11-21T00:29:07;68.95;;;43.45;;
32501;SDS011;18952;52.516;13.460;2023-11-21T00:31:34;77.78;;;45.30;;
32501;SDS011;18952;52.516;13.460;2023-11-21T00:34:04;81.38;;;47.70;;
32501;SDS011;18952;52.516;13.460;2023-11-21T00:36:31;89.28;;;50.58;;
32501;SDS011;18952;52.516;13.460;2023-11-21T00:38:58;86.78;;;51.53;;
32501;SDS011;18952;52.516;13.460;2023-11-21T00:41:25;90.97;;;51.65;;
32501;SDS011;18952;52.516;13.460;2023-11-21T00:43:53;84.88;;;50.83;;
32501;SDS011;18952;52.516;13.460;2023-11-21T00:46:20;87.63;;;52.83;;
32501;SDS011;18952;52.516;13.460;2023-11-21T00:48:47;94.10;;;53.95;;
32501;SDS011;18952;52.516;13.460;2023-11-21T00:51:14;91.47;;;53.65;;
32501;SDS011;18952;52.516;13.460;2023-11-21T00:53:41;89.63;;;52.85;;
32501;SDS011;18952;52.516;13.460;2023-11-21T00:56:08;98.80;;;51.63;;
32501;SDS011;18952;52.516;13.460;2023-11-21T00:58:35;91.07;;;51.38;;
32501;SDS011;18952;52.516;13.460;2023-11-21T01:01:02;86.22;;;49.72;;
32501;SDS011;18952;52.516;13.460;2023-11-21T01:03:28;93.75;;;52.75;;
32501;SDS011;18952;52.516;13.460;2023-11-21T01:05:55;87.13;;;49.58;;
32501;SDS011;18952;52.516;13.460;2023-11-21T01:08:23;84.93;;;49.92;;
32501;SDS011;18952;52.516;13.460;2023-11-21T01:10:49;92.50;;;47.92;;
32501;SDS011;18952;52.516;13.460;2023-11-21T01:13:16;92.43;;;52.22;;
32501;SDS011;18952;52.516;13.460;2023-11-21T01:15:43;100.13;;;52.90;;
32501;SDS011;18952;52.516;13.460;2023-11-21T01:18:10;106.15;;;54.67;;
32501;SDS011;18952;52.516;13.460;2023-11-21T01:20:37;108.45;;;57.13;;
32501;SDS011;18952;52.516;13.460;2023-11-21T01:23:04;112.15;;;58.25;;
32501;SDS011;18952;52.516;13.460;2023-11-21T01:25:30;118.47;;;61.28;;
32501;SDS011;18952;52.516;13.460;2023-11-21T01:27:57;125.18;;;64.60;;
32501;SDS011;18952;52.516;13.460;2023-11-21T01:30:24;147.38;;;69.28;;
32501;SDS011;18952;52.516;13.460;2023-11-21T01:32:51;129.18;;;69.07;;
32501;SDS011;18952;52.516;13.460;2023-11-21T01:35:18;137.68;;;72.20;;
32501;SDS011;18952;52.516;13.460;2023-11-21T01:37:44;143.13;;;70.03;;
32501;SDS011;18952;52.516;13.460;2023-11-21T01:40:11;147.27;;;67.70;;
32501;SDS011;18952;52.516;13.460;2023-11-21T01:42:39;141.65;;;68.28;;
32501;SDS011;18952;52.516;13.460;2023-11-21T01:45:07;148.02;;;68.10;;
32501;SDS011;18952;52.516;13.460;2023-11-21T01:47:34;128.35;;;59.90;;
32501;SDS011;18952;52.516;13.460;2023-11-21T01:50:01;110.18;;;55.70;;
32501;SDS011;18952;52.516;13.460;2023-11-21T01:52:28;117.60;;;53.33;;
32501;SDS011;18952;52.516;13.460;2023-11-21T01:54:56;108.72;;;51.63;;
32501;SDS011;18952;52.516;13.460;2023-11-21T01:57:24;111.90;;;52.95;;
32501;SDS011;18952;52.516;13.460;2023-11-21T01:59:51;92.90;;;47.20;;
32501;SDS011;18952;52.516;13.460;2023-11-21T02:02:21;96.40;;;47.30;;
32501;SDS011;18952;52.516;13.460;2023-11-21T02:04:48;93.93;;;43.30;;
32501;SDS011;18952;52.516;13.460;2023-11-21T02:07:14;78.22;;;41.08;;
32501;SDS011;18952;52.516;13.460;2023-11-21T02:09:41;75.05;;;39.05;;
32501;SDS011;18952;52.516;13.460;2023-11-21T02:12:08;76.00;;;39.00;;
32501;SDS011;18952;52.516;13.460;2023-11-21T02:14:35;71.82;;;38.83;;
32501;SDS011;18952;52.516;13.460;2023-11-21T02:17:02;76.65;;;39.83;;
32501;SDS011;18952;52.516;13.460;2023-11-21T02:19:29;72.20;;;37.67;;
32501;SDS011;18952;52.516;13.460;2023-11-21T02:21:57;70.85;;;37.30;;
32501;SDS011;18952;52.516;13.460;2023-11-21T02:24:25;72.57;;;38.95;;
32501;SDS011;18952;52.516;13.460;2023-11-21T02:26:53;74.20;;;39.15;;
32501;SDS011;18952;52.516;13.460;2023-11-21T02:29:20;70.78;;;38.28;;
32501;SDS011;18952;52.516;13.460;2023-11-21T02:31:51;79.50;;;39.25;;
32501;SDS011;18952;52.516;13.460;2023-11-21T02:34:19;72.60;;;36.97;;
32501;SDS011;18952;52.516;13.460;2023-11-21T02:36:46;64.75;;;36.38;;
32501;SDS011;18952;52.516;13.460;2023-11-21T02:39:13;71.85;;;36.38;;
32501;SDS011;18952;52.516;13.460;2023-11-21T02:41:40;66.55;;;35.53;;
32501;SDS011;18952;52.516;13.460;2023-11-21T02:44:07;61.65;;;33.38;;
32501;SDS011;18952;52.516;13.460;2023-11-21T02:46:34;54.40;;;30.85;;
32501;SDS011;18952;52.516;13.460;2023-11-21T02:49:02;51.00;;;28.55;;
32501;SDS011;18952;52.516;13.460;2023-11-21T02:51:30;42.33;;;28.45;;
32501;SDS011;18952;52.516;13.460;2023-11-21T02:53:57;45.15;;;27.48;;
32501;SDS011;18952;52.516;13.460;2023-11-21T02:56:24;40.95;;;26.08;;
32501;SDS011;18952;52.516;13.460;2023-11-21T02:58:52;35.50;;;25.45;;
32501;SDS011;18952;52.516;13.460;2023-11-21T03:01:21;37.60;;;25.05;;
32501;SDS011;18952;52.516;13.460;2023-11-21T03:03:48;32.35;;;25.73;;
32501;SDS011;18952;52.516;13.460;2023-11-21T03:06:15;30.08;;;25.02;;
32501;SDS011;18952;52.516;13.460;2023-11-21T03:08:42;31.50;;;27.27;;
32501;SDS011;18952;52.516;13.460;2023-11-21T03:11:09;28.38;;;25.33;;
32501;SDS011;18952;52.516;13.460;2023-11-21T03:13:35;31.05;;;26.73;;
32501;SDS011;18952;52.516;13.460;2023-11-21T03:16:02;33.90;;;24.33;;
32501;SDS011;18952;52.516;13.460;2023-11-21T03:18:29;27.27;;;22.70;;
32501;SDS011;18952;52.516;13.460;2023-11-21T03:20:56;23.88;;;21.25;;
32501;SDS011;18952;52.516;13.460;2023-11-21T03:23:23;26.13;;;19.20;;
32501;SDS011;18952;52.516;13.460;2023-11-21T03:25:50;23.30;;;19.25;;
32501;SDS011;18952;52.516;13.460;2023-11-21T03:28:16;23.40;;;19.50;;
32501;SDS011;18952;52.516;13.460;2023-11-21T03:30:43;21.98;;;19.42;;
32501;SDS011;18952;52.516;13.460;2023-11-21T03:33:10;25.77;;;20.00;;
32501;SDS011;18952;52.516;13.460;2023-11-21T03:35:37;23.42;;;20.33;;
32501;SDS011;18952;52.516;13.460;2023-11-21T03:38:04;21.05;;;18.23;;
32501;SDS011;18952;52.516;13.460;2023-11-21T03:40:31;22.20;;;18.17;;
32501;SDS011;18952;52.516;13.460;2023-11-21T03:42:57;19.98;;;17.60;;
32501;SDS011;18952;52.516;13.460;2023-11-21T03:45:24;20.02;;;17.42;;
32501;SDS011;18952;52.516;13.460;2023-11-21T03:47:51;17.40;;;15.70;;
32501;SDS011;18952;52.516;13.460;2023-11-21T03:50:18;17.10;;;15.40;;
32501;SDS011;18952;52.516;13.460;2023-11-21T03:52:45;19.27;;;15.60;;
32501;SDS011;18952;52.516;13.460;2023-11-21T03:55:12;21.00;;;16.88;;
32501;SDS011;18952;52.516;13.460;2023-11-21T03:57:39;17.48;;;15.57;;
32501;SDS011;18952;52.516;13.460;2023-11-21T04:00:06;18.20;;;16.30;;
32501;SDS011;18952;52.516;13.460;2023-11-21T04:02:34;18.65;;;14.57;;
32501;SDS011;18952;52.516;13.460;2023-11-21T04:05:01;16.35;;;14.75;;
32501;SDS011;18952;52.516;13.460;2023-11-21T04:07:28;17.88;;;13.57;;
32501;SDS011;18952;52.516;13.460;2023-11-21T04:09:55;17.58;;;14.05;;
32501;SDS011;18952;52.516;13.460;2023-11-21T04:12:22;18.85;;;14.40;;
32501;SDS011;18952;52.516;13.460;2023-11-21T04:14:48;15.30;;;12.27;;
32501;SDS011;18952;52.516;13.460;2023-11-21T04:17:19;14.57;;;13.00;;
32501;SDS011;18952;52.516;13.460;2023-11-21T04:19:46;14.82;;;13.23;;
32501;SDS011;18952;52.516;13.460;2023-11-21T04:22:13;14.30;;;12.18;;
32501;SDS011;18952;52.516;13.460;2023-11-21T04:24:40;15.55;;;12.73;;
32501;SDS011;18952;52.516;13.460;2023-11-21T04:27:07;14.00;;;12.57;;
32501;SDS011;18952;52.516;13.460;2023-11-21T04:29:34;14.65;;;12.68;;
32501;SDS011;18952;52.516;13.460;2023-11-21T04:32:01;12.40;;;11.20;;
32501;SDS011;18952;52.516;13.460;2023-11-21T04:34:28;12.32;;;11.05;;
32501;SDS011;18952;52.516;13.460;2023-11-21T04:36:55;13.48;;;10.70;;
32501;SDS011;18952;52.516;13.460;2023-11-21T04:39:21;15.68;;;11.52;;
32501;SDS011;18952;52.516;13.460;2023-11-21T04:41:48;14.00;;;11.38;;
32501;SDS011;18952;52.516;13.460;2023-11-21T04:44:15;13.05;;;10.70;;
32501;SDS011;18952;52.516;13.460;2023-11-21T04:46:42;11.60;;;10.43;;
32501;SDS011;18952;52.516;13.460;2023-11-21T04:49:09;14.43;;;10.75;;
32501;SDS011;18952;52.516;13.460;2023-11-21T04:51:36;18.85;;;11.95;;
32501;SDS011;18952;52.516;13.460;2023-11-21T04:54:04;13.00;;;11.63;;
32501;SDS011;18952;52.516;13.460;2023-11-21T04:56:31;12.65;;;11.30;;
32501;SDS011;18952;52.516;13.460;2023-11-21T04:58:58;12.05;;;10.88;;
32501;SDS011;18952;52.516;13.460;2023-11-21T05:01:25;11.70;;;10.50;;
32501;SDS011;18952;52.516;13.460;2023-11-21T05:03:51;14.50;;;9.80;;
32501;SDS011;18952;52.516;13.460;2023-11-21T05:06:19;10.73;;;9.63;;
32501;SDS011;18952;52.516;13.460;2023-11-21T05:08:45;12.70;;;9.93;;
32501;SDS011;18952;52.516;13.460;2023-11-21T05:11:12;12.98;;;9.68;;
32501;SDS011;18952;52.516;13.460;2023-11-21T05:13:50;11.77;;;10.48;;
32501;SDS011;18952;52.516;13.460;2023-11-21T05:16:17;15.90;;;9.93;;
32501;SDS011;18952;52.516;13.460;2023-11-21T05:18:44;11.13;;;10.10;;
32501;SDS011;18952;52.516;13.460;2023-11-21T05:21:11;11.93;;;10.70;;
32501;SDS011;18952;52.516;13.460;2023-11-21T05:23:37;11.20;;;9.93;;
32501;SDS011;18952;52.516;13.460;2023-11-21T05:26:04;13.10;;;10.30;;
32501;SDS011;18952;52.516;13.460;2023-11-21T05:28:31;13.15;;;10.93;;
32501;SDS011;18952;52.516;13.460;2023-11-21T05:30:58;13.38;;;10.70;;
32501;SDS011;18952;52.516;13.460;2023-11-21T05:33:41;12.23;;;10.93;;
32501;SDS011;18952;52.516;13.460;2023-11-21T05:36:08;12.10;;;10.02;;
32501;SDS011;18952;52.516;13.460;2023-11-21T05:38:35;11.07;;;9.88;;
32501;SDS011;18952;52.516;13.460;2023-11-21T05:41:02;13.27;;;10.52;;
32501;SDS011;18952;52.516;13.460;2023-11-21T05:43:29;10.52;;;9.43;;
32501;SDS011;18952;52.516;13.460;2023-11-21T05:45:57;10.52;;;9.43;;
32501;SDS011;18952;52.516;13.460;2023-11-21T05:48:23;14.55;;;9.70;;
32501;SDS011;18952;52.516;13.460;2023-11-21T05:50:50;11.27;;;9.07;;
32501;SDS011;18952;52.516;13.460;2023-11-21T05:53:17;9.85;;;8.95;;
32501;SDS011;18952;52.516;13.460;2023-11-21T05:55:44;15.32;;;10.10;;
32501;SDS011;18952;52.516;13.460;2023-11-21T05:58:11;10.55;;;8.90;;
32501;SDS011;18952;52.516;13.460;2023-11-21T06:00:38;11.00;;;9.32;;
32501;SDS011;18952;52.516;13.460;2023-11-21T06:03:04;13.05;;;10.15;;
32501;SDS011;18952;52.516;13.460;2023-11-21T06:05:34;11.48;;;10.30;;
32501;SDS011;18952;52.516;13.460;2023-11-21T06:08:03;16.17;;;12.27;;
32501;SDS011;18952;52.516;13.460;2023-11-21T06:10:32;16.67;;;13.00;;
32501;SDS011;18952;52.516;13.460;2023-11-21T06:13:01;15.30;;;12.40;;
32501;SDS011;18952;52.516;13.460;2023-11-21T06:15:30;15.45;;;13.07;;
32501;SDS011;18952;52.516;13.460;2023-11-21T06:17:57;15.20;;;12.55;;
32501;SDS011;18952;52.516;13.460;2023-11-21T06:20:31;23.70;;;12.43;;
32501;SDS011;18952;52.516;13.460;2023-11-21T06:22:58;14.70;;;11.43;;
32501;SDS011;18952;52.516;13.460;2023-11-21T06:25:25;12.85;;;11.35;;
32501;SDS011;18952;52.516;13.460;2023-11-21T06:27:53;11.38;;;10.23;;
32501;SDS011;18952;52.516;13.460;2023-11-21T06:30:20;11.57;;;10.38;;
32501;SDS011;18952;52.516;13.460;2023-11-21T06:32:47;10.90;;;9.80;;
32501;SDS011;18952;52.516;13.460;2023-11-21T06:35:14;11.65;;;9.60;;
32501;SDS011;18952;52.516;13.460;2023-11-21T06:37:43;11.07;;;9.50;;
32501;SDS011;18952;52.516;13.460;2023-11-21T06:40:10;11.23;;;9.70;;
32501;SDS011;18952;52.516;13.460;2023-11-21T06:42:37;10.38;;;9.27;;
32501;SDS011;18952;52.516;13.460;2023-11-21T06:45:04;10.65;;;9.55;;
32501;SDS011;18952;52.516;13.460;2023-11-21T06:47:31;10.93;;;9.23;;
32501;SDS011;18952;52.516;13.460;2023-11-21T06:49:59;10.98;;;9.68;;
32501;SDS011;18952;52.516;13.460;2023-11-21T06:52:26;10.60;;;9.50;;
32501;SDS011;18952;52.516;13.460;2023-11-21T06:54:53;10.20;;;9.20;;
32501;SDS011;18952;52.516;13.460;2023-11-21T06:57:22;15.40;;;10.50;;
32501;SDS011;18952;52.516;13.460;2023-11-21T06:59:50;12.75;;;9.63;;
32501;SDS011;18952;52.516;13.460;2023-11-21T07:02:16;11.50;;;9.82;;
32501;SDS011;18952;52.516;13.460;2023-11-21T07:04:46;11.13;;;9.93;;
32501;SDS011;18952;52.516;13.460;2023-11-21T07:07:13;12.95;;;10.40;;
32501;SDS011;18952;52.516;13.460;2023-11-21T07:09:40;10.60;;;8.75;;
32501;SDS011;18952;52.516;13.460;2023-11-21T07:12:07;11.43;;;9.85;;
32501;SDS011;18952;52.516;13.460;2023-11-21T07:14:34;9.98;;;8.95;;
32501;SDS011;18952;52.516;13.460;2023-11-21T07:17:01;14.25;;;9.13;;
32501;SDS011;18952;52.516;13.460;2023-11-21T07:19:28;9.98;;;7.72;;
32501;SDS011;18952;52.516;13.460;2023-11-21T07:21:55;9.27;;;7.70;;
32501;SDS011;18952;52.516;13.460;2023-11-21T07:24:23;10.65;;;7.97;;
32501;SDS011;18952;52.516;13.460;2023-11-21T07:26:53;8.57;;;7.72;;
32501;SDS011;18952;52.516;13.460;2023-11-21T07:29:20;9.85;;;8.85;;
32501;SDS011;18952;52.516;13.460;2023-11-21T07:31:47;9.70;;;7.07;;
32501;SDS011;18952;52.516;13.460;2023-11-21T07:34:13;8.30;;;7.50;;
32501;SDS011;18952;52.516;13.460;2023-11-21T07:36:40;11.20;;;10.00;;
32501;SDS011;18952;52.516;13.460;2023-11-21T07:39:08;12.48;;;8.73;;
32501;SDS011;18952;52.516;13.460;2023-11-21T07:41:34;10.90;;;8.02;;
32501;SDS011;18952;52.516;13.460;2023-11-21T07:44:01;10.27;;;7.72;;
32501;SDS011;18952;52.516;13.460;2023-11-21T07:46:28;9.98;;;7.45;;
32501;SDS011;18952;52.516;13.460;2023-11-21T07:48:55;13.98;;;7.55;;
32501;SDS011;18952;52.516;13.460;2023-11-21T07:51:23;7.85;;;6.93;;
32501;SDS011;18952;52.516;13.460;2023-11-21T07:53:50;10.07;;;6.85;;
32501;SDS011;18952;52.516;13.460;2023-11-21T07:56:16;10.43;;;7.93;;
32501;SDS011;18952;52.516;13.460;2023-11-21T07:58:43;11.18;;;7.85;;
32501;SDS011;18952;52.516;13.460;2023-11-21T08:01:10;10.93;;;7.13;;
32501;SDS011;18952;52.516;13.460;2023-11-21T08:03:37;13.05;;;7.53;;
32501;SDS011;18952;52.516;13.460;2023-11-21T08:06:05;15.10;;;8.32;;
32501;SDS011;18952;52.516;13.460;2023-11-21T08:08:32;10.55;;;8.93;;
32501;SDS011;18952;52.516;13.460;2023-11-21T08:10:59;16.27;;;9.68;;
32501;SDS011;18952;52.516;13.460;2023-11-21T08:13:27;17.67;;;8.40;;
32501;SDS011;18952;52.516;13.460;2023-11-21T08:15:56;13.45;;;8.57;;
32501;SDS011;18952;52.516;13.460;2023-11-21T08:18:24;14.80;;;10.23;;
32501;SDS011;18952;52.516;13.460;2023-11-21T08:20:51;14.55;;;9.60;;
32501;SDS011;18952;52.516;13.460;2023-11-21T08:23:18;14.93;;;9.40;;
32501;SDS011;18952;52.516;13.460;2023-11-21T08:25:45;12.10;;;9.18;;
32501;SDS011;18952;52.516;13.460;2023-11-21T08:28:12;13.80;;;9.40;;
32501;SDS011;18952;52.516;13.460;2023-11-21T08:30:39;14.65;;;10.02;;
32501;SDS011;18952;52.516;13.460;2023-11-21T08:33:07;17.63;;;10.93;;
32501;SDS011;18952;52.516;13.460;2023-11-21T08:35:34;17.85;;;10.68;;
32501;SDS011;18952;52.516;13.460;2023-11-21T08:38:02;19.45;;;11.00;;
32501;SDS011;18952;52.516;13.460;2023-11-21T08:40:32;19.02;;;11.90;;
32501;SDS011;18952;52.516;13.460;2023-11-21T08:42:59;19.35;;;13.10;;
32501;SDS011;18952;52.516;13.460;2023-11-21T08:45:26;21.77;;;13.65;;
32501;SDS011;18952;52.516;13.460;2023-11-21T08:47:53;23.10;;;13.27;;
32501;SDS011;18952;52.516;13.460;2023-11-21T08:50:23;27.45;;;13.43;;
32501;SDS011;18952;52.516;13.460;2023-11-21T08:52:50;25.25;;;14.48;;
32501;SDS011;18952;52.516;13.460;2023-11-21T08:55:16;24.33;;;13.48;;
32501;SDS011;18952;52.516;13.460;2023-11-21T08:57:44;33.95;;;20.50;;
32501;SDS011;18952;52.516;13.460;2023-11-21T09:00:11;28.58;;;15.15;;
32501;SDS011;18952;52.516;13.460;2023-11-21T09:02:38;27.25;;;14.93;;
32501;SDS011;18952;52.516;13.460;2023-11-21T09:05:06;28.10;;;15.57;;
32501;SDS011;18952;52.516;13.460;2023-11-21T09:07:33;24.45;;;14.30;;
32501;SDS011;18952;52.516;13.460;2023-11-21T09:10:05;30.42;;;15.48;;
32501;SDS011;18952;52.516;13.460;2023-11-21T09:12:33;31.15;;;16.77;;
32501;SDS011;18952;52.516;13.460;2023-11-21T09:15:07;24.63;;;15.75;;
32501;SDS011;18952;52.516;13.460;2023-11-21T09:17:34;33.28;;;17.38;;
32501;SDS011;18952;52.516;13.460;2023-11-21T09:20:02;24.42;;;15.23;;
32501;SDS011;18952;52.516;13.460;2023-11-21T09:22:30;30.88;;;13.77;;
32501;SDS011;18952;52.516;13.460;2023-11-21T09:24:57;23.88;;;14.02;;
32501;SDS011;18952;52.516;13.460;2023-11-21T09:27:24;21.60;;;13.27;;
32501;SDS011;18952;52.516;13.460;2023-11-21T09:29:51;20.95;;;12.57;;
32501;SDS011;18952;52.516;13.460;2023-11-21T09:32:18;28.52;;;12.00;;
32501;SDS011;18952;52.516;13.460;2023-11-21T09:34:48;16.05;;;9.65;;
32501;SDS011;18952;52.516;13.460;2023-11-21T09:37:16;23.90;;;7.68;;
32501;SDS011;18952;52.516;13.460;2023-11-21T09:39:43;16.85;;;7.90;;
32501;SDS011;18952;52.516;13.460;2023-11-21T09:42:12;11.10;;;6.38;;
32501;SDS011;18952;52.516;13.460;2023-11-21T09:45:25;19.05;;;6.50;;
32501;SDS011;18952;52.516;13.460;2023-11-21T09:47:50;12.15;;;7.13;;
32501;SDS011;18952;52.516;13.460;2023-11-21T09:50:19;12.45;;;6.35;;
32501;SDS011;18952;52.516;13.460;2023-11-21T09:55:46;10.98;;;4.70;;
32501;SDS011;18952;52.516;13.460;2023-11-21T09:58:14;7.43;;;3.90;;
32501;SDS011;18952;52.516;13.460;2023-11-21T10:00:42;22.70;;;4.63;;
32501;SDS011;18952;52.516;13.460;2023-11-21T10:03:12;10.02;;;3.88;;
32501;SDS011;18952;52.516;13.460;2023-11-21T10:05:41;3.88;;;2.78;;
32501;SDS011;18952;52.516;13.460;2023-11-21T10:08:09;8.52;;;3.33;;
32501;SDS011;18952;52.516;13.460;2023-11-21T10:10:37;6.10;;;3.00;;
32501;SDS011;18952;52.516;13.460;2023-11-21T10:13:10;11.07;;;3.20;;
32501;SDS011;18952;52.516;13.460;2023-11-21T10:15:39;7.95;;;3.10;;
32501;SDS011;18952;52.516;13.460;2023-11-21T10:18:07;6.28;;;4.38;;
32501;SDS011;18952;52.516;13.460;2023-11-21T10:20:35;5.70;;;2.83;;
32501;SDS011;18952;52.516;13.460;2023-11-21T10:23:02;2.78;;;2.53;;
32501;SDS011;18952;52.516;13.460;2023-11-21T10:25:29;6.88;;;2.45;;
32501;SDS011;18952;52.516;13.460;2023-11-21T10:27:57;5.13;;;3.20;;
32501;SDS011;18952;52.516;13.460;2023-11-21T10:30:27;21.05;;;8.65;;
32501;SDS011;18952;52.516;13.460;2023-11-21T10:33:01;4.47;;;3.45;;
32501;SDS011;18952;52.516;13.460;2023-11-21T10:38:11;3.13;;;2.90;;
32501;SDS011;18952;52.516;13.460;2023-11-21T10:40:38;4.53;;;2.95;;
32501;SDS011;18952;52.516;13.460;2023-11-21T10:43:09;6.28;;;3.75;;
32501;SDS011;18952;52.516;13.460;2023-11-21T10:45:39;15.63;;;4.32;;
32501;SDS011;18952;52.516;13.460;2023-11-21T10:48:07;8.02;;;3.47;;
32501;SDS011;18952;52.516;13.460;2023-11-21T10:50:35;15.10;;;5.18;;
32501;SDS011;18952;52.516;13.460;2023-11-21T10:53:03;36.78;;;6.45;;
32501;SDS011;18952;52.516;13.460;2023-11-21T10:55:31;25.52;;;5.60;;
32501;SDS011;18952;52.516;13.460;2023-11-21T10:58:00;23.20;;;4.55;;
32501;SDS011;18952;52.516;13.460;2023-11-21T11:00:29;3.78;;;3.40;;
32501;SDS011;18952;52.516;13.460;2023-11-21T11:02:56;5.07;;;3.72;;
32501;SDS011;18952;52.516;13.460;2023-11-21T11:05:23;9.35;;;4.53;;
32501;SDS011;18952;52.516;13.460;2023-11-21T11:10:30;8.77;;;4.80;;
32501;SDS011;18952;52.516;13.460;2023-11-21T11:12:58;8.80;;;5.40;;
32501;SDS011;18952;52.516;13.460;2023-11-21T11:15:25;10.43;;;4.85;;
32501;SDS011;18952;52.516;13.460;2023-11-21T11:17:54;5.93;;;4.60;;
32501;SDS011;18952;52.516;13.460;2023-11-21T11:20:22;12.48;;;5.03;;
32501;SDS011;18952;52.516;13.460;2023-11-21T11:23:04;6.35;;;4.50;;
32501;SDS011;18952;52.516;13.460;2023-11-21T11:29:14;5.38;;;4.78;;
32501;SDS011;18952;52.516;13.460;2023-11-21T11:34:50;6.80;;;5.40;;
32501;SDS011;18952;52.516;13.460;2023-11-21T11:37:28;8.07;;;5.07;;
32501;SDS011;18952;52.516;13.460;2023-11-21T11:39:55;7.05;;;4.78;;
32501;SDS011;18952;52.516;13.460;2023-11-21T11:42:23;6.60;;;4.55;;
32501;SDS011;18952;52.516;13.460;2023-11-21T11:44:50;8.15;;;5.18;;
32501;SDS011;18952;52.516;13.460;2023-11-21T11:47:23;12.60;;;6.93;;
32501;SDS011;18952;52.516;13.460;2023-11-21T11:49:56;19.10;;;9.38;;
32501;SDS011;18952;52.516;13.460;2023-11-21T11:55:05;27.15;;;5.45;;
32501;SDS011;18952;52.516;13.460;2023-11-21T11:57:54;14.70;;;4.55;;
32501;SDS011;18952;52.516;13.460;2023-11-21T12:00:33;13.27;;;4.68;;
32501;SDS011;18952;52.516;13.460;2023-11-21T12:03:09;9.18;;;3.95;;
32501;SDS011;18952;52.516;13.460;2023-11-21T12:05:39;8.43;;;4.93;;
32501;SDS011;18952;52.516;13.460;2023-11-21T12:08:14;10.13;;;4.40;;
32501;SDS011;18952;52.516;13.460;2023-11-21T12:10:53;8.10;;;4.63;;
32501;SDS011;18952;52.516;13.460;2023-11-21T12:13:24;21.33;;;4.60;;
32501;SDS011;18952;52.516;13.460;2023-11-21T12:15:53;6.57;;;3.95;;
32501;SDS011;18952;52.516;13.460;2023-11-21T12:18:20;7.50;;;4.03;;
32501;SDS011;18952;52.516;13.460;2023-11-21T12:20:47;9.00;;;4.57;;
32501;SDS011;18952;52.516;13.460;2023-11-21T12:23:19;4.32;;;3.40;;
32501;SDS011;18952;52.516;13.460;2023-11-21T12:25:47;19.15;;;4.50;;
32501;SDS011;18952;52.516;13.460;2023-11-21T12:28:17;13.25;;;4.10;;
32501;SDS011;18952;52.516;13.460;2023-11-21T12:30:43;6.53;;;3.55;;
32501;SDS011;18952;52.516;13.460;2023-11-21T12:33:10;11.93;;;3.72;;
32501;SDS011;18952;52.516;13.460;2023-11-21T12:35:37;30.52;;;4.30;;
32501;SDS011;18952;52.516;13.460;2023-11-21T12:38:04;7.00;;;4.50;;
32501;SDS011;18952;52.516;13.460;2023-11-21T12:40:32;13.40;;;4.10;;
32501;SDS011;18952;52.516;13.460;2023-11-21T12:42:59;14.15;;;3.90;;
32501;SDS011;18952;52.516;13.460;2023-11-21T12:45:27;4.93;;;3.47;;
32501;SDS011;18952;52.516;13.460;2023-11-21T12:48:01;5.30;;;3.70;;
32501;SDS011;18952;52.516;13.460;2023-11-21T12:50:31;4.30;;;3.88;;
32501;SDS011;18952;52.516;13.460;2023-11-21T12:52:59;15.18;;;3.55;;
32501;SDS011;18952;52.516;13.460;2023-11-21T12:55:33;11.10;;;5.13;;
32501;SDS011;18952;52.516;13.460;2023-11-21T12:58:02;18.30;;;5.15;;
32501;SDS011;18952;52.516;13.460;2023-11-21T13:00:33;5.18;;;4.68;;
32501;SDS011;18952;52.516;13.460;2023-11-21T13:03:01;24.60;;;5.63;;
32501;SDS011;18952;52.516;13.460;2023-11-21T13:05:30;4.40;;;4.00;;
32501;SDS011;18952;52.516;13.460;2023-11-21T13:08:05;9.05;;;4.72;;
32501;SDS011;18952;52.516;13.460;2023-11-21T13:10:34;9.13;;;3.95;;
32501;SDS011;18952;52.516;13.460;2023-11-21T13:13:02;8.35;;;5.07;;
32501;SDS011;18952;52.516;13.460;2023-11-21T13:15:32;14.18;;;4.78;;
32501;SDS011;18952;52.516;13.460;2023-11-21T13:17:59;5.07;;;4.38;;
32501;SDS011;18952;52.516;13.460;2023-11-21T13:20:26;5.63;;;4.95;;
32501;SDS011;18952;52.516;13.460;2023-11-21T13:22:54;11.30;;;4.65;;
32501;SDS011;18952;52.516;13.460;2023-11-21T13:25:26;11.13;;;6.30;;
32501;SDS011;18952;52.516;13.460;2023-11-21T13:27:54;10.10;;;5.53;;
32501;SDS011;18952;52.516;13.460;2023-11-21T13:36:18;10.77;;;6.80;;
32501;SDS011;18952;52.516;13.460;2023-11-21T13:38:45;11.30;;;7.35;;
32501;SDS011;18952;52.516;13.460;2023-11-21T13:41:12;13.57;;;7.28;;
32501;SDS011;18952;52.516;13.460;2023-11-21T13:43:39;26.42;;;8.18;;
32501;SDS011;18952;52.516;13.460;2023-11-21T13:46:06;12.40;;;7.60;;
32501;SDS011;18952;52.516;13.460;2023-11-21T13:48:33;13.25;;;7.80;;
32501;SDS011;18952;52.516;13.460;2023-11-21T13:51:00;19.73;;;8.95;;
32501;SDS011;18952;52.516;13.460;2023-11-21T13:53:27;22.05;;;8.93;;
32501;SDS011;18952;52.516;13.460;2023-11-21T13:55:54;19.85;;;8.20;;
32501;SDS011;18952;52.516;13.460;2023-11-21T13:58:24;26.13;;;8.90;;
32501;SDS011;18952;52.516;13.460;2023-11-21T14:00:51;13.70;;;8.38;;
32501;SDS011;18952;52.516;13.460;2023-11-21T14:03:18;26.23;;;9.48;;
32501;SDS011;18952;52.516;13.460;2023-11-21T14:05:45;16.42;;;8.32;;
32501;SDS011;18952;52.516;13.460;2023-11-21T14:08:12;16.55;;;9.75;;
32501;SDS011;18952;52.516;13.460;2023-11-21T14:10:38;11.68;;;10.55;;
32501;SDS011;18952;52.516;13.460;2023-11-21T14:13:05;13.35;;;11.68;;
32501;SDS011;18952;52.516;13.460;2023-11-21T14:15:32;15.70;;;12.30;;
32501;SDS011;18952;52.516;13.460;2023-11-21T14:17:59;22.73;;;17.35;;
32501;SDS011;18952;52.516;13.460;2023-11-21T14:20:26;16.90;;;15.07;;
32501;SDS011;18952;52.516;13.460;2023-11-21T14:22:53;21.00;;;15.27;;
32501;SDS011;18952;52.516;13.460;2023-11-21T14:25:20;22.55;;;16.38;;
32501;SDS011;18952;52.516;13.460;2023-11-21T14:27:47;21.80;;;15.98;;
32501;SDS011;18952;52.516;13.460;2023-11-21T14:30:13;21.35;;;17.58;;
32501;SDS011;18952;52.516;13.460;2023-11-21T14:32:40;25.88;;;20.45;;
32501;SDS011;18952;52.516;13.460;2023-11-21T14:35:07;25.55;;;20.25;;
32501;SDS011;18952;52.516;13.460;2023-11-21T14:37:34;27.48;;;21.25;;
32501;SDS011;18952;52.516;13.460;2023-11-21T14:40:02;25.23;;;21.17;;
32501;SDS011;18952;52.516;13.460;2023-11-21T14:42:31;31.08;;;24.05;;
32501;SDS011;18952;52.516;13.460;2023-11-21T14:45:14;34.95;;;27.85;;